Welcome to Northern Hawkes Bay. New Zealand.
PWS Header
      nz Flag



Hit Counter


W3C Valid W3C Valid logo


    Wairoa

Select any of the Stations below to visit their websites.










Historic Data from Weather Underground
Select the location of interest below. Wairoa is the default. Please have patience, this Data is slow to load in.
Northern Hawkes Bay Historical Data
Daily Summary for January 28, 2017 Units:  English    Metric   Both
« Previous Day
Next Day »
Daily Weekly Monthly Yearly Custom
  High: Low: Average:
Temperature: 73.6 °F 55.4 °F 66 °F
Dew Point: 61 °F 50.5 °F 56.7 °F
Humidity: 88% 60% 72%
Wind Speed: 11.4mph 0mph 4.4mph
Wind Gust: 17.4mph - -
Wind- - South
Pressure: 30.2 in 29.9 in -
Precipitation: 0 in    
Historical Graphs
 
 
Tabular Data for January 28, 2017
Time Temperature Dew Point Pressure Wind Wind Speed Wind Gust Humidity Rainfall Rate (Hourly) solar
00:02 68.2 °F 54.1 °F 29.9 in WSW 9.2 mph 15.9 mph 61% 0 in 0 W/m2
00:08 68 °F 55 °F 29.9 in WSW 5.4 mph 15.9 mph 63% 0 in 0 W/m2
00:13 67.8 °F 55.6 °F 29.9 in WSW 3.8 mph 10.7 mph 65% 0 in 0 W/m2
00:18 67.6 °F 55 °F 29.9 in WSW 6.9 mph 11.4 mph 64% 0 in 0 W/m2
00:23 67.6 °F 55 °F 30 in WSW 10.7 mph 15.9 mph 64% 0 in 0 W/m2
00:29 67.8 °F 53.4 °F 30 in WSW 9.8 mph 17.4 mph 60% 0 in 0 W/m2
00:34 67.8 °F 54 °F 30 in SW 7.6 mph 17.4 mph 61% 0 in 0 W/m2
00:39 67.5 °F 54.3 °F 30 in WSW 6 mph 13.6 mph 63% 0 in 0 W/m2
00:44 67.3 °F 54.3 °F 30 in WSW 7.6 mph 11.4 mph 63% 0 in 0 W/m2
00:49 67.3 °F 54.7 °F 30 in WSW 6.9 mph 12.1 mph 64% 0 in 0 W/m2
00:54 66.9 °F 54.3 °F 30 in WSW 7.6 mph 13 mph 64% 0 in 0 W/m2
00:59 66.9 °F 54.3 °F 30 in WSW 9.8 mph 13 mph 64% 0 in 0 W/m2
01:04 66.9 °F 54.3 °F 30 in WSW 4.5 mph 14.5 mph 64% 0 in 0 W/m2
01:09 66.7 °F 54.7 °F 30 in SW 5.4 mph 14.5 mph 65% 0 in 0 W/m2
01:14 66.7 °F 54.7 °F 30 in SW 7.6 mph 14.5 mph 65% 0 in 0 W/m2
01:19 66.6 °F 54.9 °F 30 in SW 6 mph 14.5 mph 66% 0 in 0 W/m2
01:24 66.4 °F 56.7 °F 30 in SW 3.8 mph 11.4 mph 71% 0 in 0 W/m2
01:29 66 °F 58.3 °F 30 in SW 4.5 mph 9.8 mph 76% 0 in 0 W/m2
01:34 65.8 °F 58.5 °F 30 in SW 6.9 mph 11.4 mph 77% 0 in 0 W/m2
01:39 65.5 °F 59.2 °F 30 in SW 4.5 mph 11.4 mph 80% 0 in 0 W/m2
01:44 65.1 °F 59.5 °F 30 in SW 3.1 mph 7.6 mph 82% 0 in 0 W/m2
01:49 64.9 °F 59.4 °F 30 in WSW 4.5 mph 7.6 mph 82% 0 in 0 W/m2
01:54 64.9 °F 59 °F 30 in SW 2.2 mph 7.6 mph 81% 0 in 0 W/m2
01:59 64.8 °F 58.1 °F 30 in SW 3.8 mph 6.9 mph 79% 0 in 0 W/m2
02:04 64.8 °F 57.7 °F 30 in SW 4.5 mph 9.2 mph 78% 0 in 0 W/m2
02:09 64.6 °F 57.2 °F 30 in SW 6.9 mph 9.2 mph 77% 0 in 0 W/m2
02:14 64.6 °F 56.8 °F 30 in SW 3.8 mph 8.3 mph 76% 0 in 0 W/m2
02:19 64.6 °F 56.1 °F 30 in SW 5.4 mph 8.3 mph 74% 0 in 0 W/m2
02:24 64.8 °F 55.6 °F 30 in SW 3.8 mph 9.8 mph 72% 0 in 0 W/m2
02:30 64.9 °F 55.2 °F 30 in SW 7.6 mph 9.8 mph 71% 0 in 0 W/m2
02:36 64.9 °F 54.9 °F 30 in SW 3.1 mph 9.8 mph 70% 0 in 0 W/m2
02:41 64.9 °F 54.9 °F 30 in SW 4.5 mph 9.8 mph 70% 0 in 0 W/m2
02:46 64.8 °F 55.2 °F 30 in SSW 3.8 mph 8.3 mph 71% 0 in 0 W/m2
02:51 64.8 °F 54.3 °F 30 in SW 2.2 mph 8.3 mph 69% 0 in 0 W/m2
02:56 64.6 °F 54.1 °F 30 in WSW 3.8 mph 8.3 mph 69% 0 in 0 W/m2
03:01 64.6 °F 54.1 °F 30 in SW 1.6 mph 6.9 mph 69% 0 in 0 W/m2
03:06 64.4 °F 54 °F 30 in SW 2.2 mph 6 mph 69% 0 in 0 W/m2
03:12 64 °F 54.1 °F 30 in WSW 2.2 mph 5.4 mph 70% 0 in 0 W/m2
03:17 63.9 °F 54.3 °F 30 in WSW 0.7 mph 5.4 mph 71% 0 in 0 W/m2
03:22 63.5 °F 54 °F 30 in West 0.7 mph 3.8 mph 71% 0 in 0 W/m2
03:27 63.5 °F 54 °F 30 in WSW 0.7 mph 6 mph 71% 0 in 0 W/m2
03:32 63.3 °F 53.4 °F 30 in WSW 0.7 mph 6 mph 70% 0 in 0 W/m2
03:38 62.8 °F 52.5 °F 30 in NW 0.7 mph 3.8 mph 69% 0 in 0 W/m2
03:43 61.7 °F 51.4 °F 30 in NW 2.2 mph 3.8 mph 69% 0 in 0 W/m2
03:48 60.8 °F 51.1 °F 30 in NW 1.6 mph 3.8 mph 70% 0 in 0 W/m2
03:53 60.1 °F 51.4 °F 30 in NNW 1.6 mph 3.8 mph 73% 0 in 0 W/m2
03:58 59.5 °F 51.3 °F 30 in NNW 1.6 mph 3.8 mph 74% 0 in 0 W/m2
04:03 59 °F 51.1 °F 30 in Calm   3.1 mph 75% 0 in 0 W/m2
04:08 58.5 °F 50.9 °F 30 in NNW 1.6 mph 3.1 mph 76% 0 in 0 W/m2
04:13 57.9 °F 50.7 °F 30 in NW 0.7 mph 3.1 mph 77% 0 in 0 W/m2
04:18 57.7 °F 50.5 °F 30 in NW 2.2 mph 4.5 mph 77% 0 in 0 W/m2
04:23 57.4 °F 50.9 °F 30 in Calm   4.5 mph 79% 0 in 0 W/m2
04:28 57 °F 50.9 °F 30 in NW 0.7 mph 3.1 mph 80% 0 in 0 W/m2
04:34 56.8 °F 51.4 °F 30 in NNW 2.2 mph 3.8 mph 82% 0 in 0 W/m2
04:40 56.5 °F 51.6 °F 30 in NW 1.6 mph 3.8 mph 84% 0 in 0 W/m2
04:45 56.5 °F 52 °F 30 in NW 1.6 mph 3.8 mph 85% 0 in 0 W/m2
04:50 56.1 °F 51.6 °F 30 in NW 1.6 mph 3.8 mph 85% 0 in 0 W/m2
04:55 55.9 °F 51.4 °F 30 in NW 0.7 mph 3.8 mph 85% 0 in 0 W/m2
05:00 55.8 °F 51.3 °F 30.1 in NNW 0.7 mph 2.2 mph 85% 0 in 0 W/m2
05:06 55.6 °F 51.4 °F 30 in North 1.6 mph 2.2 mph 86% 0 in 0 W/m2
05:11 55.4 °F 51.3 °F 30.1 in Calm   2.2 mph 86% 0 in 0 W/m2
05:16 55.4 °F 51.6 °F 30.1 in North 3.1 mph 4.5 mph 87% 0 in 0 W/m2
05:21 55.6 °F 51.8 °F 30.1 in North 2.2 mph 4.5 mph 87% 0 in 0 W/m2
05:27 55.8 °F 52 °F 30.1 in NNW 0.7 mph 3.1 mph 87% 0 in 0 W/m2
05:32 55.9 °F 52.2 °F 30.1 in NW 1.6 mph 3.1 mph 87% 0 in 0 W/m2
05:37 56.1 °F 52.3 °F 30.1 in NW 0.7 mph 3.8 mph 87% 0 in 0 W/m2
05:42 56.1 °F 52.3 °F 30.1 in NW 0.7 mph 3.8 mph 87% 0 in 0 W/m2
05:47 56.1 °F 52 °F 30.1 in NNW 2.2 mph 3.8 mph 86% 0 in 0 W/m2
05:52 55.9 °F 51.8 °F 30.1 in NNW 2.2 mph 3.8 mph 86% 0 in 0 W/m2
06:02 55.9 °F 52.2 °F 30.1 in NW 1.6 mph 3.8 mph 87% 0 in 0 W/m2
06:07 55.9 °F 52.2 °F 30.1 in NNW 1.6 mph 4.5 mph 87% 0 in 0 W/m2
06:12 55.9 °F 52.2 °F 30.1 in NNW 1.6 mph 4.5 mph 87% 0 in 0 W/m2
06:17 56.1 °F 52.3 °F 30.1 in NNW 2.2 mph 3.8 mph 87% 0 in 0 W/m2
06:22 56.1 °F 52.3 °F 30.1 in NNW 2.2 mph 3.8 mph 87% 0 in 1 W/m2
06:27 56.1 °F 52.3 °F 30.1 in NNW 0.7 mph 3.8 mph 87% 0 in 3 W/m2
06:32 56.1 °F 52.3 °F 30.1 in NNW 1.6 mph 4.5 mph 87% 0 in 5 W/m2
06:35 56.1 °F 52.3 °F 30.1 in NW 3.8 mph 4.5 mph 87% 0 in 6 W/m2
06:40 56.1 °F 52.5 °F 30.1 in NW 2.2 mph 5.4 mph 88% 0 in 9 W/m2
06:45 56.3 °F 52.9 °F 30.1 in NNW 3.1 mph 5.4 mph 88% 0 in 11 W/m2
06:51 56.7 °F 53.2 °F 30.1 in NNW 3.1 mph 5.4 mph 88% 0 in 13 W/m2
06:56 56.8 °F 53.1 °F 30.1 in North 2.2 mph 5.4 mph 87% 0 in 16 W/m2
07:01 57.2 °F 53.1 °F 30.1 in NNE 3.8 mph 5.4 mph 86% 0 in 20 W/m2
07:06 57.6 °F 53.4 °F 30.1 in North 2.2 mph 4.5 mph 86% 0 in 25 W/m2
07:11 58.1 °F 53.6 °F 30.1 in North 1.6 mph 4.5 mph 85% 0 in 31 W/m2
07:16 58.5 °F 54 °F 30.1 in North 0.7 mph 3.8 mph 85% 0 in 41 W/m2
07:21 58.8 °F 54 °F 30.1 in North 0.7 mph 3.1 mph 84% 0 in 52 W/m2
07:26 59 °F 54 °F 30.1 in NW 3.1 mph 4.5 mph 83% 0 in 58 W/m2
07:31 59 °F 53.4 °F 30.1 in NW 2.2 mph 5.4 mph 82% 0 in 68 W/m2
07:36 59 °F 53.4 °F 30.1 in NW 3.1 mph 6 mph 82% 0 in 75 W/m2
07:41 59 °F 53.4 °F 30.1 in NW 2.2 mph 6 mph 82% 0 in 76 W/m2
07:46 59.4 °F 54 °F 30.1 in NNW 3.8 mph 6 mph 82% 0 in 86 W/m2
07:51 59.5 °F 53.8 °F 30.1 in NNW 2.2 mph 6 mph 81% 0 in 89 W/m2
07:56 59.7 °F 54 °F 30.1 in NNW 3.1 mph 5.4 mph 81% 0 in 107 W/m2
08:01 60.1 °F 54 °F 30.1 in NNW 2.2 mph 4.5 mph 80% 0 in 113 W/m2
08:06 60.1 °F 53.6 °F 30.1 in NNW 2.2 mph 4.5 mph 79% 0 in 121 W/m2
08:11 60.6 °F 54.1 °F 30.1 in NNW 1.6 mph 4.5 mph 79% 0 in 131 W/m2
08:16 61.2 °F 54 °F 30.1 in NNW 2.2 mph 3.8 mph 77% 0 in 142 W/m2
08:21 61.5 °F 54 °F 30.1 in NNW 0.7 mph 3.8 mph 76% 0 in 155 W/m2
08:26 61.9 °F 54.1 °F 30.1 in North 1.6 mph 3.8 mph 76% 0 in 193 W/m2
08:31 63.1 °F 54.7 °F 30.1 in Calm   3.1 mph 74% 0 in 176 W/m2
08:36 63.7 °F 54.5 °F 30.1 in NNW 2.2 mph 3.1 mph 72% 0 in 201 W/m2
08:41 64.4 °F 55.2 °F 30.1 in North 0.7 mph 3.1 mph 72% 0 in 163 W/m2
08:46 65.7 °F 55.9 °F 30.1 in Calm   3.1 mph 71% 0 in 181 W/m2
08:51 66.2 °F 54.5 °F 30.1 in SSW 0.7 mph 5.4 mph 66% 0 in 222 W/m2
08:56 66.7 °F 54.1 °F 30.1 in SW 5.4 mph 8.3 mph 64% 0 in 303 W/m2
09:01 68 °F 55 °F 30.1 in WSW 5.4 mph 8.3 mph 63% 0 in 320 W/m2
09:06 67.6 °F 54.7 °F 30.1 in WSW 6 mph 10.7 mph 63% 0 in 322 W/m2
09:11 67.6 °F 55 °F 30.1 in WSW 6 mph 10.7 mph 64% 0 in 532 W/m2
09:16 68.4 °F 55.2 °F 30.1 in SW 3.8 mph 10.7 mph 63% 0 in 396 W/m2
09:21 68 °F 54.5 °F 30.1 in SW 4.5 mph 10.7 mph 62% 0 in 434 W/m2
09:26 68.2 °F 54.7 °F 30.1 in SW 8.3 mph 11.4 mph 62% 0 in 494 W/m2
09:31 69.1 °F 55 °F 30.1 in SW 8.3 mph 13.6 mph 61% 0 in 409 W/m2
09:36 68.2 °F 54.7 °F 30.1 in SW 6.9 mph 13.6 mph 62% 0 in 529 W/m2
09:41 68.2 °F 55 °F 30.2 in SW 7.6 mph 13 mph 63% 0 in 506 W/m2
09:46 68.4 °F 55.2 °F 30.2 in SSW 9.8 mph 14.5 mph 63% 0 in 383 W/m2
09:51 68 °F 55 °F 30.2 in SSW 10.7 mph 14.5 mph 63% 0 in 513 W/m2
09:56 67.6 °F 55.6 °F 30.2 in SW 3.8 mph 14.5 mph 65% 0 in 585 W/m2
10:01 68.4 °F 55.2 °F 30.2 in SW 6.9 mph 14.5 mph 63% 0 in 342 W/m2
10:06 67.3 °F 54.7 °F 30.2 in SW 6 mph 15.2 mph 64% 0 in 307 W/m2
10:11 66.7 °F 54.7 °F 30.2 in WSW 8.3 mph 15.2 mph 65% 0 in 290 W/m2
10:16 66.7 °F 54.7 °F 30.2 in SW 7.6 mph 11.4 mph 65% 0 in 312 W/m2
10:21 66.7 °F 54.7 °F 30.2 in SSW 7.6 mph 12.1 mph 65% 0 in 365 W/m2
10:26 66.9 °F 54.9 °F 30.2 in SW 8.3 mph 13 mph 65% 0 in 462 W/m2
10:31 67.3 °F 55 °F 30.2 in SSW 6 mph 14.5 mph 65% 0 in 368 W/m2
10:36 67.3 °F 55.6 °F 30.2 in SSW 6.9 mph 14.5 mph 66% 0 in 384 W/m2
10:41 67.3 °F 55.6 °F 30.2 in SSW 6.9 mph 14.5 mph 66% 0 in 333 W/m2
10:46 66.9 °F 55.6 °F 30.2 in SSW 6 mph 10.7 mph 67% 0 in 284 W/m2
10:51 67.6 °F 56.3 °F 30.2 in SSW 6 mph 10.7 mph 67% 0 in 769 W/m2
10:56 68 °F 56.7 °F 30.2 in SW 7.6 mph 9.8 mph 67% 0 in 791 W/m2
11:01 68.4 °F 56.7 °F 30.2 in WSW 6.9 mph 10.7 mph 66% 0 in 814 W/m2
11:20 68.5 °F 57.6 °F 30.2 in SSW 6.9 mph 13.6 mph 68% 0 in 860 W/m2
11:25 68.9 °F 58.3 °F 30.2 in SSW 6 mph 13.6 mph 69% 0 in 876 W/m2
11:30 68.9 °F 57.6 °F 30.2 in SSW 5.4 mph 14.5 mph 67% 0 in 886 W/m2
11:35 68.7 °F 57.7 °F 30.2 in South 6.9 mph 14.5 mph 68% 0 in 902 W/m2
11:40 68.7 °F 59 °F 30.2 in SSW 5.4 mph 12.1 mph 71% 0 in 912 W/m2
11:50 69.3 °F 59.5 °F 30.2 in SSW 6 mph 13 mph 71% 0 in 941 W/m2
11:56 69.4 °F 59.7 °F 30.2 in South 8.3 mph 11.4 mph 71% 0 in 937 W/m2
11:57 69.3 °F 59.5 °F 30.2 in South 7.6 mph 11.4 mph 71% 0 in 933 W/m2
12:01 69.3 °F 60.3 °F 30.2 in SSW 6.9 mph 11.4 mph 73% 0 in 944 W/m2
12:02 69.3 °F 59.9 °F 30.2 in SSW 5.4 mph 11.4 mph 72% 0 in 946 W/m2
12:07 69.8 °F 60.1 °F 30.2 in SW 6 mph 11.4 mph 71% 0 in 951 W/m2
12:12 70 °F 60.3 °F 30.2 in SW 6 mph 11.4 mph 71% 0 in 963 W/m2
12:17 69.6 °F 60.6 °F 30.2 in SW 7.6 mph 12.1 mph 73% 0 in 975 W/m2
12:22 69.4 °F 60.8 °F 30.2 in SSW 11.4 mph 13 mph 74% 0 in 979 W/m2
12:27 69.4 °F 60.8 °F 30.2 in SSW 7.6 mph 13 mph 74% 0 in 986 W/m2
12:32 69.6 °F 60.6 °F 30.2 in SSW 7.6 mph 13.6 mph 73% 0 in 1087 W/m2
12:37 69.6 °F 61 °F 30.2 in SSW 6.9 mph 13.6 mph 74% 0 in 607 W/m2
12:42 69.6 °F 60.6 °F 30.2 in SSW 6.9 mph 12.1 mph 73% 0 in 1075 W/m2
12:47 69.3 °F 60.6 °F 30.2 in SSW 7.6 mph 13 mph 74% 0 in 1034 W/m2
12:52 69.6 °F 60.6 °F 30.2 in SSW 8.3 mph 13 mph 73% 0 in 1057 W/m2
12:57 70.2 °F 59.9 °F 30.2 in South 4.5 mph 12.1 mph 70% 0 in 1013 W/m2
13:02 70.3 °F 60.1 °F 30.2 in South 8.3 mph 12.1 mph 70% 0 in 990 W/m2
13:07 70 °F 60.3 °F 30.2 in South 6.9 mph 12.1 mph 71% 0 in 959 W/m2
13:12 69.8 °F 59.5 °F 30.2 in South 9.2 mph 13 mph 70% 0 in 943 W/m2
13:17 69.8 °F 60.4 °F 30.2 in South 6.9 mph 13 mph 72% 0 in 720 W/m2
13:22 70 °F 59.4 °F 30.2 in South 8.3 mph 13.6 mph 69% 0 in 938 W/m2
13:27 69.8 °F 60.1 °F 30.2 in South 9.2 mph 13.6 mph 71% 0 in 956 W/m2
13:32 69.8 °F 59.2 °F 30.2 in South 4.5 mph 12.1 mph 69% 0 in 931 W/m2
13:37 70.3 °F 59.7 °F 30.2 in South 8.3 mph 12.1 mph 69% 0 in 751 W/m2
13:42 69.8 °F 59.2 °F 30.2 in South 7.6 mph 13 mph 69% 0 in 846 W/m2
13:47 69.8 °F 59.5 °F 30.2 in South 7.6 mph 13 mph 70% 0 in 883 W/m2
13:52 69.1 °F 59.7 °F 30.2 in South 7.6 mph 14.5 mph 72% 0 in 914 W/m2
13:57 69.4 °F 60.4 °F 30.2 in South 5.4 mph 14.5 mph 73% 0 in 892 W/m2
14:02 69.3 °F 59.2 °F 30.2 in SSE 6 mph 13.6 mph 70% 0 in 894 W/m2
14:07 69.1 °F 59.4 °F 30.2 in SSE 9.2 mph 13.6 mph 71% 0 in 883 W/m2
14:12 69.4 °F 59.7 °F 30.2 in SSE 10.7 mph 15.2 mph 71% 0 in 869 W/m2
14:17 68.5 °F 59.5 °F 30.2 in SSE 6 mph 15.2 mph 73% 0 in 506 W/m2
14:22 69.1 °F 59.4 °F 30.2 in SSE 5.4 mph 14.5 mph 71% 0 in 862 W/m2
14:27 69.1 °F 58.8 °F 30.2 in SSE 7.6 mph 14.5 mph 70% 0 in 854 W/m2
14:32 69.4 °F 59.7 °F 30.2 in SSE 5.4 mph 14.5 mph 71% 0 in 845 W/m2
14:37 69.6 °F 59.4 °F 30.2 in SSE 7.6 mph 13.6 mph 70% 0 in 840 W/m2
14:42 69.1 °F 59.7 °F 30.2 in South 5.4 mph 13 mph 72% 0 in 827 W/m2
14:47 69.3 °F 59.9 °F 30.2 in South 7.6 mph 15.2 mph 72% 0 in 836 W/m2
14:52 69.8 °F 60.4 °F 30.2 in SSE 3.8 mph 15.9 mph 72% 0 in 827 W/m2
14:57 70.5 °F 60.3 °F 30.2 in SSE 1.6 mph 15.9 mph 70% 0 in 835 W/m2
15:02 71.1 °F 60.1 °F 30.2 in SSE 5.4 mph 13.6 mph 68% 0 in 798 W/m2
15:07 70.7 °F 59.2 °F 30.2 in SSE 5.4 mph 13 mph 67% 0 in 796 W/m2
15:12 71.1 °F 60.8 °F 30.2 in SSE 4.5 mph 12.1 mph 70% 0 in 825 W/m2
15:17 71.2 °F 60.3 °F 30.2 in SE 5.4 mph 12.1 mph 68% 0 in 748 W/m2
15:22 71.2 °F 60.3 °F 30.2 in SE 5.4 mph 11.4 mph 68% 0 in 751 W/m2
15:27 70.7 °F 60.1 °F 30.2 in SSE 3.8 mph 11.4 mph 69% 0 in 760 W/m2
15:32 71.1 °F 59.5 °F 30.2 in SSE 4.5 mph 12.1 mph 67% 0 in 751 W/m2
15:37 71.2 °F 59.7 °F 30.2 in SSE 3.1 mph 14.5 mph 67% 0 in 577 W/m2
15:42 72.1 °F 59.4 °F 30.2 in SE 8.3 mph 14.5 mph 64% 0 in 502 W/m2
15:47 72 °F 59.5 °F 30.2 in SSE 3.8 mph 9.8 mph 65% 0 in 451 W/m2
15:52 71.6 °F 58.8 °F 30.2 in SSE 8.3 mph 11.4 mph 64% 0 in 548 W/m2
15:57 71.6 °F 58.8 °F 30.2 in SE 6 mph 11.4 mph 64% 0 in 551 W/m2
16:02 71.2 °F 59.4 °F 30.2 in SE 5.4 mph 14.5 mph 66% 0 in 538 W/m2
16:07 71.8 °F 59.7 °F 30.2 in South 2.2 mph 14.5 mph 66% 0 in 644 W/m2
16:17 72.1 °F 59.4 °F 30.2 in ESE 6.9 mph 12.1 mph 64% 0 in 624 W/m2
16:23 72.1 °F 59.4 °F 30.2 in ESE 5.4 mph 12.1 mph 64% 0 in 582 W/m2
16:28 71.6 °F 59.2 °F 30.2 in SE 3.8 mph 13 mph 65% 0 in 594 W/m2
16:33 72.7 °F 60.3 °F 30.2 in SE 3.8 mph 13 mph 65% 0 in 575 W/m2
16:36 72.9 °F 59.5 °F 30.2 in SE 5.4 mph 13 mph 63% 0 in 569 W/m2
16:40 72.3 °F 59.9 °F 30.2 in SE 5.4 mph 13.6 mph 65% 0 in 563 W/m2
16:45 72.5 °F 60.1 °F 30.2 in SSE 6.9 mph 13.6 mph 65% 0 in 550 W/m2
16:50 72.5 °F 59.7 °F 30.2 in SSE 6 mph 12.1 mph 64% 0 in 534 W/m2
16:55 72.7 °F 60.3 °F 30.2 in SE 4.5 mph 12.1 mph 65% 0 in 523 W/m2
17:00 72.9 °F 60.1 °F 30.2 in SE 6 mph 13 mph 64% 0 in 508 W/m2
17:06 72.7 °F 60.6 °F 30.1 in SE 7.6 mph 15.2 mph 66% 0 in 491 W/m2
17:11 72.1 °F 60.3 °F 30.2 in SE 7.6 mph 15.2 mph 66% 0 in 477 W/m2
17:16 72.1 °F 59.7 °F 30.2 in SE 3.8 mph 13 mph 65% 0 in 460 W/m2
17:21 72.5 °F 60.1 °F 30.1 in SSE 4.5 mph 13 mph 65% 0 in 448 W/m2
17:26 73 °F 59.7 °F 30.1 in SSE 5.4 mph 13 mph 63% 0 in 433 W/m2
17:31 73.4 °F 59.5 °F 30.1 in SE 9.8 mph 13 mph 62% 0 in 415 W/m2
17:36 72.7 °F 59.4 °F 30.1 in ESE 6 mph 14.5 mph 63% 0 in 403 W/m2
17:41 73.6 °F 59.7 °F 30.1 in East 7.6 mph 14.5 mph 62% 0 in 387 W/m2
17:46 72.7 °F 58.8 °F 30.1 in ESE 6.9 mph 14.5 mph 62% 0 in 373 W/m2
17:51 72.5 °F 58.8 °F 30.1 in SE 5.4 mph 14.5 mph 62% 0 in 360 W/m2
17:56 72.3 °F 59.5 °F 30.1 in SE 5.4 mph 12.1 mph 64% 0 in 340 W/m2
18:01 72.5 °F 58.8 °F 30.1 in ESE 5.4 mph 12.1 mph 62% 0 in 332 W/m2
18:06 71.8 °F 58.5 °F 30.1 in East 9.8 mph 15.2 mph 63% 0 in 312 W/m2
18:11 71.4 °F 59.2 °F 30.1 in ESE 4.5 mph 16.8 mph 65% 0 in 298 W/m2
18:16 71.4 °F 59.2 °F 30.1 in ESE 9.8 mph 16.8 mph 65% 0 in 287 W/m2
18:21 71.4 °F 59.2 °F 30.1 in ESE 9.2 mph 15.2 mph 65% 0 in 273 W/m2
18:26 70.7 °F 58.8 °F 30.1 in ESE 7.6 mph 17.4 mph 66% 0 in 257 W/m2
18:31 71.2 °F 58.5 °F 30.1 in SE 5.4 mph 17.4 mph 64% 0 in 247 W/m2
18:36 71.4 °F 58.6 °F 30.1 in SE 5.4 mph 13.6 mph 64% 0 in 243 W/m2
18:56 70.3 °F 57.9 °F 30.1 in ESE 5.4 mph 9.8 mph 65% 0 in 105 W/m2
19:01 69.6 °F 58.6 °F 30.1 in SE 5.4 mph 10.7 mph 68% 0 in 101 W/m2
19:06 69.4 °F 58.8 °F 30.1 in ESE 3.8 mph 10.7 mph 69% 0 in 95 W/m2
19:11 69.3 °F 58.6 °F 30.1 in ESE 5.4 mph 9.8 mph 69% 0 in 84 W/m2
19:15 69.1 °F 58.1 °F 30.1 in ESE 7.6 mph 12.1 mph 68% 0 in 76 W/m2
19:20 68.7 °F 58.3 °F 30.1 in ESE 6 mph 13 mph 69% 0 in 73 W/m2
19:25 68.5 °F 58.5 °F 30.1 in ESE 11.4 mph 14.5 mph 70% 0 in 76 W/m2
19:30 68.5 °F 58.5 °F 30.2 in East 5.4 mph 14.5 mph 70% 0 in 62 W/m2
19:35 68.4 °F 58.3 °F 30.2 in East 8.3 mph 14.5 mph 70% 0 in 50 W/m2
19:40 68.2 °F 57.6 °F 30.2 in East 7.6 mph 11.4 mph 69% 0 in 38 W/m2
19:45 68.2 °F 57.6 °F 30.2 in ESE 3.1 mph 11.4 mph 69% 0 in 25 W/m2
19:50 68.2 °F 57.6 °F 30.2 in ESE 6 mph 9.8 mph 69% 0 in 17 W/m2
19:55 68 °F 57.6 °F 30.2 in East 4.5 mph 10.7 mph 69% 0 in 14 W/m2
20:00 68 °F 57.9 °F 30.2 in ENE 5.4 mph 10.7 mph 70% 0 in 12 W/m2
20:06 67.8 °F 58.1 °F 30.2 in East 6 mph 10.7 mph 71% 0 in 8 W/m2
20:11 67.6 °F 57.6 °F 30.2 in East 4.5 mph 9.2 mph 70% 0 in 6 W/m2
20:16 67.6 °F 57.6 °F 30.2 in East 3.8 mph 8.3 mph 70% 0 in 4 W/m2
20:21 67.6 °F 57.9 °F 30.2 in ENE 6.9 mph 9.8 mph 71% 0 in 2 W/m2
20:26 67.5 °F 57.7 °F 30.2 in ENE 2.2 mph 9.8 mph 71% 0 in 0 W/m2
20:31 67.5 °F 57.7 °F 30.2 in ENE 3.1 mph 9.8 mph 71% 0 in 0 W/m2
20:36 67.3 °F 57.9 °F 30.2 in ENE 3.1 mph 6.9 mph 72% 0 in 0 W/m2
20:41 67.5 °F 57.7 °F 30.2 in ENE 2.2 mph 6.9 mph 71% 0 in 0 W/m2
20:46 67.5 °F 57.7 °F 30.2 in ENE 2.2 mph 6.9 mph 71% 0 in 0 W/m2
20:51 67.5 °F 57.7 °F 30.2 in NE 2.2 mph 5.4 mph 71% 0 in 0 W/m2
20:56 67.5 °F 57.7 °F 30.2 in NNE 3.1 mph 6 mph 71% 0 in 0 W/m2
21:01 67.3 °F 57.2 °F 30.2 in NE 0.7 mph 7.6 mph 70% 0 in 0 W/m2
21:06 66.9 °F 57.2 °F 30.2 in NNE 2.2 mph 7.6 mph 71% 0 in 0 W/m2
21:11 66.9 °F 57.2 °F 30.2 in NNE 1.6 mph 6.9 mph 71% 0 in 0 W/m2
21:16 66.7 °F 57.4 °F 30.2 in NE 3.8 mph 8.3 mph 72% 0 in 0 W/m2
21:21 66.6 °F 57.4 °F 30.2 in NE 4.5 mph 8.3 mph 72% 0 in 0 W/m2
21:26 66.4 °F 57 °F 30.2 in NE 4.5 mph 9.8 mph 72% 0 in 0 W/m2
21:31 66.4 °F 57.6 °F 30.2 in NNE 2.2 mph 9.8 mph 73% 0 in 0 W/m2
21:36 66.2 °F 57.4 °F 30.2 in NE 1.6 mph 7.6 mph 73% 0 in 0 W/m2
21:41 66.2 °F 57.4 °F 30.2 in NE 2.2 mph 7.6 mph 73% 0 in 0 W/m2
21:46 66 °F 57.9 °F 30.2 in NNE 2.2 mph 6.9 mph 75% 0 in 0 W/m2
21:51 66 °F 57.9 °F 30.2 in NE 2.2 mph 5.4 mph 75% 0 in 0 W/m2
21:56 65.8 °F 57.7 °F 30.2 in NNE 2.2 mph 5.4 mph 75% 0 in 0 W/m2
22:01 65.8 °F 57.7 °F 30.2 in NNE 3.1 mph 5.4 mph 75% 0 in 0 W/m2
22:06 65.7 °F 57.6 °F 30.2 in NE 2.2 mph 6.9 mph 75% 0 in 0 W/m2
22:11 65.5 °F 57.4 °F 30.2 in ENE 2.2 mph 6.9 mph 75% 0 in 0 W/m2
22:16 65.3 °F 57.2 °F 30.2 in Calm   6 mph 75% 0 in 0 W/m2
22:21 65.1 °F 57.4 °F 30.2 in NNE 1.6 mph 4.5 mph 76% 0 in 0 W/m2
22:26 65.1 °F 57.4 °F 30.2 in NNE 1.6 mph 3.1 mph 76% 0 in 0 W/m2
22:31 64.9 °F 57.2 °F 30.2 in NE 1.6 mph 3.1 mph 76% 0 in 0 W/m2
22:36 64.8 °F 57 °F 30.2 in NNE 2.2 mph 3.8 mph 76% 0 in 0 W/m2
22:41 64.8 °F 57 °F 30.2 in Calm   5.4 mph 76% 0 in 0 W/m2
22:46 64.6 °F 56.8 °F 30.2 in NE 0.7 mph 5.4 mph 76% 0 in 0 W/m2
22:51 64.4 °F 57 °F 30.2 in NE 2.2 mph 3.8 mph 77% 0 in 0 W/m2
22:56 64.4 °F 57 °F 30.2 in NE 0.7 mph 4.5 mph 77% 0 in 0 W/m2
23:01 64.2 °F 56.8 °F 30.2 in NE 0.7 mph 4.5 mph 77% 0 in 0 W/m2
23:06 64 °F 57 °F 30.2 in Calm   3.1 mph 78% 0 in 0 W/m2
23:11 64 °F 57 °F 30.2 in Calm   3.1 mph 78% 0 in 0 W/m2
23:16 63.7 °F 56.7 °F 30.2 in Calm   1.6 mph 78% 0 in 0 W/m2
23:21 63.5 °F 56.8 °F 30.2 in NE 1.6 mph 3.1 mph 79% 0 in 0 W/m2
23:26 63.5 °F 56.8 °F 30.2 in NE 1.6 mph 3.8 mph 79% 0 in 0 W/m2
23:31 63.3 °F 56.7 °F 30.2 in Calm   3.8 mph 79% 0 in 0 W/m2
23:36 63.1 °F 56.8 °F 30.2 in Calm   2.2 mph 80% 0 in 0 W/m2
23:41 63 °F 57 °F 30.2 in Calm   2.2 mph 81% 0 in 0 W/m2
23:46 63 °F 57 °F 30.2 in Calm   2.2 mph 81% 0 in 0 W/m2
23:47 62.8 °F 56.8 °F 30.2 in Calm   2.2 mph 81% 0 in 0 W/m2
23:52 62.6 °F 56.7 °F 30.2 in Calm   2.2 mph 81% 0 in 0 W/m2
23:57 62.6 °F 56.7 °F 30.2 in Calm   2.2 mph 81% 0 in 0 W/m2
Northern Hawkes Bay. New Zealand Historic Data
Compliments of Weather Underground - 2 mb